WMT3685 LIBP-LATI
Flight info
| Callsign | WMT3685 |
|---|---|
| Flight time | 0h 45m |
| Altitude | 31000 |
| Route | ERPOG DCT GARGA DCT VAKSU DCT PETAK |
| Aircraft | A321/M-SDE3FGHIRWY/LB1 |
Departure
| Time | 2026-05-07 16:16 |
|---|---|
| Airport | Abruzzo Airport (LIBP) |
Arrival
| Time | 2026-05-07 17:01 |
|---|---|
| Airport | Tirana International Airport Mother Teresa (LATI) |
| Time | Latitude | Longitude | Altitude | Speed | Heading |
|---|---|---|---|---|---|
| 2026-05-07 15:42 | 42.43063 | 14.18758 | 46 ft | 0 kts | 127° |
| 2026-05-07 16:01 | 42.43074 | 14.18738 | 43 ft | 4 kts | 127° |
| 2026-05-07 16:01 | 42.43083 | 14.18722 | 45 ft | 4 kts | 133° |
| 2026-05-07 16:01 | 42.43102 | 14.18706 | 45 ft | 4 kts | 194° |
| 2026-05-07 16:02 | 42.43123 | 14.18721 | 43 ft | 1 kts | 217° |
| 2026-05-07 16:02 | 42.43127 | 14.18725 | 45 ft | 0 kts | 217° |
| 2026-05-07 16:06 | 42.43123 | 14.18721 | 45 ft | 2 kts | 217° |
| 2026-05-07 16:06 | 42.43089 | 14.18686 | 45 ft | 8 kts | 217° |
| 2026-05-07 16:06 | 42.43050 | 14.18646 | 45 ft | 0 kts | 217° |
| 2026-05-07 16:06 | 42.43037 | 14.18627 | 45 ft | 6 kts | 232° |
| 2026-05-07 16:07 | 42.43023 | 14.18571 | 45 ft | 7 kts | 260° |
| 2026-05-07 16:07 | 42.43016 | 14.18502 | 45 ft | 8 kts | 262° |
| 2026-05-07 16:07 | 42.42987 | 14.18439 | 45 ft | 9 kts | 219° |
| 2026-05-07 16:07 | 42.42936 | 14.18387 | 45 ft | 10 kts | 217° |
| 2026-05-07 16:08 | 42.42880 | 14.18329 | 45 ft | 11 kts | 217° |
| 2026-05-07 16:08 | 42.42818 | 14.18265 | 45 ft | 12 kts | 217° |
| 2026-05-07 16:08 | 42.42752 | 14.18196 | 44 ft | 12 kts | 217° |
| 2026-05-07 16:08 | 42.42680 | 14.18123 | 44 ft | 13 kts | 217° |
| 2026-05-07 16:09 | 42.42605 | 14.18044 | 44 ft | 14 kts | 217° |
| 2026-05-07 16:09 | 42.42524 | 14.17961 | 45 ft | 15 kts | 217° |
| 2026-05-07 16:09 | 42.42469 | 14.17904 | 43 ft | 15 kts | 217° |
| 2026-05-07 16:09 | 42.42382 | 14.17814 | 42 ft | 16 kts | 217° |
| 2026-05-07 16:10 | 42.42306 | 14.17735 | 45 ft | 11 kts | 218° |
| 2026-05-07 16:10 | 42.42280 | 14.17690 | 45 ft | 6 kts | 247° |
| 2026-05-07 16:10 | 42.42268 | 14.17634 | 45 ft | 7 kts | 259° |
| 2026-05-07 16:10 | 42.42265 | 14.17602 | 45 ft | 0 kts | 266° |
| 2026-05-07 16:13 | 42.42265 | 14.17596 | 45 ft | 1 kts | 266° |
| 2026-05-07 16:13 | 42.42265 | 14.17578 | 45 ft | 3 kts | 269° |
| 2026-05-07 16:14 | 42.42269 | 14.17539 | 45 ft | 5 kts | 284° |
| 2026-05-07 16:14 | 42.42288 | 14.17496 | 43 ft | 6 kts | 316° |
| 2026-05-07 16:14 | 42.42328 | 14.17484 | 45 ft | 6 kts | 9° |
| 2026-05-07 16:14 | 42.42370 | 14.17515 | 45 ft | 7 kts | 35° |
| 2026-05-07 16:15 | 42.42419 | 14.17565 | 45 ft | 13 kts | 37° |
| 2026-05-07 16:15 | 42.42658 | 14.17813 | 48 ft | 79 kts | 37° |
| 2026-05-07 16:15 | 42.43271 | 14.18448 | 46 ft | 141 kts | 37° |
| 2026-05-07 16:15 | 42.44135 | 14.19350 | 400 ft | 159 kts | 37° |
| 2026-05-07 16:16 | 42.45013 | 14.20229 | 1189 ft | 157 kts | 37° |
| 2026-05-07 16:16 | 42.45892 | 14.21135 | 1839 ft | 160 kts | 40° |
| 2026-05-07 16:16 | 42.46821 | 14.22112 | 2210 ft | 178 kts | 39° |
| 2026-05-07 16:16 | 42.47857 | 14.23188 | 2515 ft | 198 kts | 38° |
| 2026-05-07 16:17 | 42.49008 | 14.24369 | 2700 ft | 217 kts | 39° |
| 2026-05-07 16:17 | 42.49950 | 14.26071 | 2793 ft | 241 kts | 74° |
| 2026-05-07 16:17 | 42.50003 | 14.28392 | 3222 ft | 254 kts | 101° |
| 2026-05-07 16:17 | 42.49536 | 14.30726 | 3893 ft | 260 kts | 109° |
| 2026-05-07 16:18 | 42.48916 | 14.33052 | 4610 ft | 263 kts | 111° |
| 2026-05-07 16:18 | 42.48376 | 14.35439 | 5288 ft | 270 kts | 101° |
| 2026-05-07 16:18 | 42.48112 | 14.37984 | 5969 ft | 275 kts | 98° |
| 2026-05-07 16:18 | 42.47886 | 14.40566 | 6635 ft | 278 kts | 97° |
| 2026-05-07 16:19 | 42.47663 | 14.43185 | 7303 ft | 281 kts | 98° |
| 2026-05-07 16:19 | 42.47431 | 14.45837 | 7959 ft | 285 kts | 98° |
| 2026-05-07 16:19 | 42.47185 | 14.48518 | 8618 ft | 289 kts | 98° |
| 2026-05-07 16:19 | 42.46931 | 14.51232 | 9284 ft | 292 kts | 98° |
| 2026-05-07 16:20 | 42.46670 | 14.53978 | 9962 ft | 296 kts | 99° |
| 2026-05-07 16:20 | 42.46404 | 14.56798 | 10319 ft | 311 kts | 99° |
| 2026-05-07 16:20 | 42.46116 | 14.59806 | 10455 ft | 333 kts | 99° |
| 2026-05-07 16:20 | 42.45805 | 14.63004 | 10691 ft | 349 kts | 99° |
| 2026-05-07 16:21 | 42.45484 | 14.66297 | 11216 ft | 356 kts | 99° |
| 2026-05-07 16:21 | 42.45156 | 14.69639 | 11786 ft | 360 kts | 99° |
| 2026-05-07 16:21 | 42.44825 | 14.73031 | 12361 ft | 365 kts | 99° |
| 2026-05-07 16:21 | 42.44491 | 14.76460 | 12945 ft | 369 kts | 99° |
| 2026-05-07 16:22 | 42.44154 | 14.79934 | 13526 ft | 374 kts | 99° |
| 2026-05-07 16:22 | 42.43812 | 14.83447 | 14065 ft | 379 kts | 99° |
| 2026-05-07 16:22 | 42.43466 | 14.86991 | 14590 ft | 382 kts | 99° |
| 2026-05-07 16:22 | 42.43112 | 14.90574 | 15124 ft | 386 kts | 99° |
| 2026-05-07 16:23 | 42.42756 | 14.94193 | 15639 ft | 390 kts | 99° |
| 2026-05-07 16:23 | 42.42393 | 14.97848 | 16162 ft | 394 kts | 100° |
| 2026-05-07 16:23 | 42.42030 | 15.01494 | 16685 ft | 398 kts | 100° |
| 2026-05-07 16:23 | 42.41658 | 15.05224 | 17211 ft | 401 kts | 100° |
| 2026-05-07 16:24 | 42.41282 | 15.08981 | 17731 ft | 405 kts | 100° |
| 2026-05-07 16:24 | 42.40900 | 15.12773 | 18243 ft | 409 kts | 100° |
| 2026-05-07 16:24 | 42.40512 | 15.16597 | 18671 ft | 412 kts | 100° |
| 2026-05-07 16:24 | 42.40118 | 15.20463 | 19114 ft | 416 kts | 100° |
| 2026-05-07 16:25 | 42.39725 | 15.24357 | 19549 ft | 420 kts | 100° |
| 2026-05-07 16:25 | 42.39325 | 15.28292 | 19987 ft | 424 kts | 100° |
| 2026-05-07 16:25 | 42.38919 | 15.32258 | 20435 ft | 427 kts | 100° |
| 2026-05-07 16:25 | 42.38507 | 15.36249 | 20893 ft | 431 kts | 100° |
| 2026-05-07 16:26 | 42.38089 | 15.40279 | 21339 ft | 434 kts | 101° |
| 2026-05-07 16:26 | 42.37665 | 15.44329 | 21746 ft | 436 kts | 101° |
| 2026-05-07 16:26 | 42.37241 | 15.48416 | 22154 ft | 441 kts | 101° |
| 2026-05-07 16:26 | 42.36954 | 15.51189 | 22430 ft | 443 kts | 100° |
| 2026-05-07 16:27 | 42.36385 | 15.56686 | 23002 ft | 447 kts | 101° |
| 2026-05-07 16:27 | 42.35949 | 15.60859 | 23407 ft | 450 kts | 101° |
| 2026-05-07 16:27 | 42.35509 | 15.65061 | 23735 ft | 453 kts | 101° |
| 2026-05-07 16:27 | 42.35064 | 15.69292 | 24069 ft | 456 kts | 101° |
| 2026-05-07 16:28 | 42.34612 | 15.73552 | 24392 ft | 459 kts | 101° |
| 2026-05-07 16:28 | 42.34152 | 15.77836 | 24712 ft | 462 kts | 101° |
| 2026-05-07 16:28 | 42.33687 | 15.82149 | 25030 ft | 465 kts | 101° |
| 2026-05-07 16:28 | 42.33222 | 15.86488 | 25341 ft | 468 kts | 101° |
| 2026-05-07 16:29 | 42.32756 | 15.90854 | 25650 ft | 471 kts | 101° |
| 2026-05-07 16:29 | 42.32286 | 15.95251 | 25957 ft | 474 kts | 101° |
| 2026-05-07 16:29 | 42.31807 | 15.99677 | 26237 ft | 476 kts | 101° |
| 2026-05-07 16:29 | 42.31322 | 16.04110 | 26544 ft | 479 kts | 102° |
| 2026-05-07 16:30 | 42.30833 | 16.08575 | 26835 ft | 482 kts | 101° |
| 2026-05-07 16:30 | 42.30342 | 16.13058 | 27135 ft | 485 kts | 101° |
| 2026-05-07 16:30 | 42.29843 | 16.17585 | 27419 ft | 487 kts | 102° |
| 2026-05-07 16:30 | 42.29341 | 16.22125 | 27699 ft | 490 kts | 101° |
| 2026-05-07 16:31 | 42.28837 | 16.26696 | 27983 ft | 493 kts | 102° |
| 2026-05-07 16:31 | 42.28327 | 16.31289 | 28265 ft | 496 kts | 102° |
| 2026-05-07 16:31 | 42.27821 | 16.35835 | 28530 ft | 498 kts | 101° |
| 2026-05-07 16:31 | 42.27302 | 16.40478 | 28781 ft | 501 kts | 101° |
| 2026-05-07 16:32 | 42.26777 | 16.45149 | 29029 ft | 503 kts | 102° |
| 2026-05-07 16:32 | 42.26252 | 16.49828 | 29238 ft | 506 kts | 101° |
| 2026-05-07 16:32 | 42.25716 | 16.54541 | 29488 ft | 509 kts | 101° |
| 2026-05-07 16:32 | 42.25176 | 16.59270 | 29750 ft | 510 kts | 101° |
| 2026-05-07 16:33 | 42.24643 | 16.63999 | 29923 ft | 511 kts | 101° |
| 2026-05-07 16:33 | 42.24106 | 16.68768 | 30138 ft | 516 kts | 101° |
| 2026-05-07 16:33 | 42.23557 | 16.73543 | 30280 ft | 514 kts | 101° |
| 2026-05-07 16:33 | 42.23001 | 16.78321 | 30399 ft | 518 kts | 102° |
| 2026-05-07 16:34 | 42.22438 | 16.83145 | 30544 ft | 522 kts | 101° |
| 2026-05-07 16:34 | 42.21873 | 16.87974 | 30761 ft | 521 kts | 101° |
| 2026-05-07 16:34 | 42.21312 | 16.92825 | 30964 ft | 523 kts | 101° |
| 2026-05-07 16:35 | 42.20202 | 17.02373 | 31028 ft | 506 kts | 102° |
| 2026-05-07 16:35 | 42.19105 | 17.11675 | 31031 ft | 499 kts | 102° |
| 2026-05-07 16:36 | 42.17995 | 17.20901 | 31035 ft | 498 kts | 102° |
| 2026-05-07 16:36 | 42.16880 | 17.30121 | 31034 ft | 498 kts | 102° |
| 2026-05-07 16:37 | 42.15768 | 17.39330 | 31044 ft | 499 kts | 102° |
| 2026-05-07 16:37 | 42.14658 | 17.48485 | 31056 ft | 498 kts | 101° |
| 2026-05-07 16:38 | 42.13530 | 17.57674 | 31064 ft | 496 kts | 102° |
| 2026-05-07 16:38 | 42.12390 | 17.66905 | 31048 ft | 496 kts | 102° |
| 2026-05-07 16:39 | 42.11260 | 17.75970 | 30782 ft | 487 kts | 101° |
| 2026-05-07 16:39 | 42.10704 | 17.80414 | 30500 ft | 477 kts | 101° |
| 2026-05-07 16:39 | 42.10151 | 17.84813 | 29942 ft | 476 kts | 101° |
| 2026-05-07 16:39 | 42.09599 | 17.89192 | 29409 ft | 474 kts | 101° |
| 2026-05-07 16:40 | 42.09053 | 17.93548 | 28906 ft | 470 kts | 101° |
| 2026-05-07 16:40 | 42.08511 | 17.97867 | 28394 ft | 466 kts | 101° |
| 2026-05-07 16:40 | 42.07968 | 18.02152 | 27898 ft | 462 kts | 102° |
| 2026-05-07 16:40 | 42.07428 | 18.06397 | 27424 ft | 458 kts | 102° |
| 2026-05-07 16:41 | 42.06890 | 18.10598 | 26953 ft | 454 kts | 102° |
| 2026-05-07 16:41 | 42.06351 | 18.14769 | 26489 ft | 450 kts | 102° |
| 2026-05-07 16:41 | 42.05814 | 18.18912 | 26037 ft | 447 kts | 102° |
| 2026-05-07 16:41 | 42.05285 | 18.23014 | 25567 ft | 444 kts | 102° |
| 2026-05-07 16:42 | 42.04759 | 18.27087 | 25106 ft | 441 kts | 102° |
| 2026-05-07 16:42 | 42.04234 | 18.31147 | 24643 ft | 439 kts | 102° |
| 2026-05-07 16:42 | 42.03715 | 18.35165 | 24211 ft | 436 kts | 102° |
| 2026-05-07 16:42 | 42.03197 | 18.39169 | 23887 ft | 431 kts | 102° |
| 2026-05-07 16:43 | 42.02685 | 18.43116 | 23465 ft | 428 kts | 102° |
| 2026-05-07 16:43 | 42.02170 | 18.47038 | 23033 ft | 424 kts | 102° |
| 2026-05-07 16:43 | 42.01649 | 18.50921 | 22598 ft | 420 kts | 104° |
| 2026-05-07 16:43 | 42.00836 | 18.54653 | 22162 ft | 412 kts | 115° |
| 2026-05-07 16:44 | 41.99758 | 18.58174 | 21923 ft | 402 kts | 118° |
| 2026-05-07 16:44 | 41.98317 | 18.61296 | 21661 ft | 386 kts | 135° |
| 2026-05-07 16:44 | 41.97089 | 18.62975 | 21510 ft | 376 kts | 142° |
| 2026-05-07 16:44 | 41.94556 | 18.66104 | 21168 ft | 372 kts | 142° |
| 2026-05-07 16:45 | 41.92653 | 18.68441 | 20909 ft | 370 kts | 142° |
| 2026-05-07 16:45 | 41.90757 | 18.70768 | 20656 ft | 368 kts | 142° |
| 2026-05-07 16:45 | 41.88870 | 18.73084 | 20417 ft | 367 kts | 142° |
| 2026-05-07 16:45 | 41.86988 | 18.75394 | 20163 ft | 365 kts | 142° |
| 2026-05-07 16:46 | 41.85119 | 18.77689 | 19927 ft | 364 kts | 141° |
| 2026-05-07 16:46 | 41.83856 | 18.79238 | 19748 ft | 362 kts | 142° |
| 2026-05-07 16:46 | 41.82002 | 18.81514 | 19515 ft | 362 kts | 142° |
| 2026-05-07 16:46 | 41.80149 | 18.83787 | 19264 ft | 360 kts | 142° |
| 2026-05-07 16:47 | 41.78306 | 18.86041 | 19030 ft | 358 kts | 142° |
| 2026-05-07 16:47 | 41.76495 | 18.88253 | 18802 ft | 356 kts | 142° |
| 2026-05-07 16:47 | 41.74665 | 18.90484 | 18571 ft | 355 kts | 142° |
| 2026-05-07 16:47 | 41.72842 | 18.92707 | 18338 ft | 354 kts | 142° |
| 2026-05-07 16:48 | 41.71026 | 18.94921 | 18073 ft | 352 kts | 142° |
| 2026-05-07 16:48 | 41.69224 | 18.97116 | 17803 ft | 349 kts | 142° |
| 2026-05-07 16:48 | 41.67427 | 18.99303 | 17542 ft | 348 kts | 142° |
| 2026-05-07 16:48 | 41.65642 | 19.01477 | 17282 ft | 346 kts | 142° |
| 2026-05-07 16:49 | 41.63865 | 19.03642 | 17026 ft | 346 kts | 142° |
| 2026-05-07 16:49 | 41.62093 | 19.05801 | 16766 ft | 344 kts | 142° |
| 2026-05-07 16:49 | 41.60331 | 19.07944 | 16490 ft | 341 kts | 142° |
| 2026-05-07 16:49 | 41.58578 | 19.10069 | 16253 ft | 337 kts | 142° |
| 2026-05-07 16:50 | 41.56857 | 19.12156 | 15888 ft | 333 kts | 142° |
| 2026-05-07 16:50 | 41.55147 | 19.14227 | 15493 ft | 331 kts | 142° |
| 2026-05-07 16:50 | 41.53451 | 19.16278 | 15093 ft | 328 kts | 142° |
| 2026-05-07 16:50 | 41.51761 | 19.18319 | 14712 ft | 327 kts | 142° |
| 2026-05-07 16:51 | 41.50078 | 19.20352 | 14316 ft | 325 kts | 142° |
| 2026-05-07 16:51 | 41.48405 | 19.22371 | 13927 ft | 324 kts | 142° |
| 2026-05-07 16:51 | 41.46736 | 19.24382 | 13503 ft | 322 kts | 142° |
| 2026-05-07 16:51 | 41.45081 | 19.26375 | 13117 ft | 319 kts | 142° |
| 2026-05-07 16:52 | 41.43437 | 19.28353 | 12733 ft | 317 kts | 142° |
| 2026-05-07 16:52 | 41.41814 | 19.30307 | 12355 ft | 314 kts | 141° |
| 2026-05-07 16:52 | 41.40200 | 19.32252 | 11981 ft | 311 kts | 141° |
| 2026-05-07 16:52 | 41.38598 | 19.34182 | 11606 ft | 309 kts | 141° |
| 2026-05-07 16:53 | 41.37006 | 19.36100 | 11235 ft | 307 kts | 141° |
| 2026-05-07 16:53 | 41.35427 | 19.37998 | 10851 ft | 305 kts | 141° |
| 2026-05-07 16:53 | 41.33855 | 19.39882 | 10499 ft | 303 kts | 141° |
| 2026-05-07 16:53 | 41.32291 | 19.41748 | 10138 ft | 301 kts | 141° |
| 2026-05-07 16:54 | 41.30749 | 19.43591 | 9932 ft | 294 kts | 141° |
| 2026-05-07 16:54 | 41.29241 | 19.45396 | 9642 ft | 289 kts | 141° |
| 2026-05-07 16:54 | 41.27752 | 19.47179 | 9310 ft | 287 kts | 141° |
| 2026-05-07 16:54 | 41.26275 | 19.48945 | 8965 ft | 285 kts | 141° |
| 2026-05-07 16:55 | 41.24826 | 19.50676 | 8595 ft | 283 kts | 141° |
| 2026-05-07 16:55 | 41.23364 | 19.52424 | 8233 ft | 282 kts | 141° |
| 2026-05-07 16:55 | 41.21887 | 19.54186 | 7859 ft | 282 kts | 140° |
| 2026-05-07 16:55 | 41.20456 | 19.55901 | 7521 ft | 279 kts | 140° |
| 2026-05-07 16:56 | 41.19063 | 19.57683 | 7161 ft | 279 kts | 131° |
| 2026-05-07 16:56 | 41.18054 | 19.59879 | 6845 ft | 280 kts | 115° |
| 2026-05-07 16:56 | 41.17620 | 19.65028 | 5973 ft | 286 kts | 86° |
| 2026-05-07 16:57 | 41.17828 | 19.67652 | 5583 ft | 285 kts | 86° |
| 2026-05-07 16:57 | 41.18030 | 19.70271 | 5187 ft | 286 kts | 86° |
| 2026-05-07 16:57 | 41.18558 | 19.72814 | 4775 ft | 290 kts | 60° |
| 2026-05-07 16:57 | 41.20007 | 19.74654 | 4356 ft | 294 kts | 27° |
| 2026-05-07 16:58 | 41.21981 | 19.75276 | 4022 ft | 292 kts | 2° |
| 2026-05-07 16:58 | 41.24005 | 19.75147 | 3557 ft | 287 kts | 352° |
| 2026-05-07 16:58 | 41.25918 | 19.74731 | 3156 ft | 270 kts | 350° |
| 2026-05-07 16:58 | 41.27704 | 19.74286 | 2821 ft | 252 kts | 351° |
| 2026-05-07 16:59 | 41.29382 | 19.73904 | 2521 ft | 237 kts | 352° |
| 2026-05-07 16:59 | 41.30958 | 19.73593 | 2221 ft | 222 kts | 353° |
| 2026-05-07 16:59 | 41.32464 | 19.73332 | 1932 ft | 216 kts | 354° |
| 2026-05-07 16:59 | 41.33912 | 19.73106 | 1623 ft | 201 kts | 354° |
| 2026-05-07 17:00 | 41.35219 | 19.72915 | 1296 ft | 178 kts | 354° |
| 2026-05-07 17:00 | 41.36401 | 19.72750 | 1058 ft | 165 kts | 354° |
| 2026-05-07 17:00 | 41.37492 | 19.72603 | 803 ft | 152 kts | 354° |
| 2026-05-07 17:00 | 41.38522 | 19.72450 | 575 ft | 146 kts | 352° |
| 2026-05-07 17:01 | 41.39535 | 19.72313 | 356 ft | 145 kts | 353° |
| 2026-05-07 17:01 | 41.40531 | 19.72182 | 156 ft | 142 kts | 353° |
| 2026-05-07 17:01 | 41.41403 | 19.72064 | 125 ft | 95 kts | 354° |
| 2026-05-07 17:01 | 41.41785 | 19.72015 | 122 ft | 24 kts | 354° |
| 2026-05-07 17:02 | 41.41864 | 19.72001 | 122 ft | 6 kts | 336° |
| 2026-05-07 17:02 | 41.41879 | 19.71949 | 122 ft | 7 kts | 272° |
| 2026-05-07 17:02 | 41.41876 | 19.71902 | 121 ft | 5 kts | 264° |
| 2026-05-07 17:02 | 41.41872 | 19.71846 | 124 ft | 7 kts | 264° |
| 2026-05-07 17:03 | 41.41866 | 19.71777 | 124 ft | 8 kts | 264° |
| 2026-05-07 17:03 | 41.41861 | 19.71711 | 122 ft | 7 kts | 264° |
| 2026-05-07 17:03 | 41.41857 | 19.71652 | 124 ft | 6 kts | 266° |
| 2026-05-07 17:03 | 41.41873 | 19.71603 | 121 ft | 6 kts | 316° |
| 2026-05-07 17:04 | 41.41909 | 19.71585 | 123 ft | 4 kts | 337° |
| 2026-05-07 17:04 | 41.41914 | 19.71559 | 123 ft | 2 kts | 262° |
| 2026-05-07 17:04 | 41.41911 | 19.71538 | 123 ft | 2 kts | 263° |
| 2026-05-07 17:04 | 41.41911 | 19.71529 | 123 ft | 1 kts | 263° |
| 2026-05-07 17:05 | 41.41910 | 19.71524 | 123 ft | 0 kts | 263° |